Piermont, New York
Current Conditions -  °F | °C
As of 8:56 PM on Monday 22 Dec 2014 (Local Time) from KHPN Reporting Station
Drizzle Drizzle  
Wind Chill: 36°   Ceiling: 500
Heat Index: 42°   Visibility: 5mi
Dew Point: 40°   Wind: 12mph
Humidity: 92%   Direction: 90°E
Pressure: 30.18"   Gusts: 18mph
Location:  41.04°N, 73.92°W
Report Text: KHPN 230156Z 09010G16KT 5SM -DZ BR BKN005 OVC008 06/04 A3018 RMK AO2 PRESFR SLP226 P0000 T00560044
Loading
Personal Weather Stations






























Interactive Weather Map New forecast layout! Learn more

10-Day Weather Forecast

Advertisements
Track Severe Weather on mobile